createdAt,value
2023-10-28T00:00:40.834Z,-20411.59
2023-10-28T00:01:43.106Z,-20413.63
2023-10-28T00:02:46.225Z,-20413.44
2023-10-28T00:03:48.533Z,-20411.03
2023-10-28T00:04:50.761Z,-20411.97
2023-10-28T00:05:53.201Z,-20411.59
2023-10-28T00:06:55.401Z,-20412.34
2023-10-28T00:07:57.649Z,-20410.84
2023-10-28T00:08:59.931Z,-20411.97
2023-10-28T00:10:08.357Z,-20414.38
2023-10-28T00:11:11.343Z,-20414.19
2023-10-28T00:12:15.380Z,-20414.91
2023-10-28T00:13:17.583Z,-20414.72
2023-10-28T00:14:20.767Z,-20416.75
2023-10-28T00:15:22.954Z,-20414.53
2023-10-28T00:16:25.306Z,-20415.47
2023-10-28T00:17:27.636Z,-20414.53
2023-10-28T00:18:29.853Z,-20413.06
2023-10-28T00:19:32.254Z,-20413.81
2023-10-28T00:20:35.696Z,-20415.28
2023-10-28T00:21:38.592Z,-20417.13
2023-10-28T00:22:41.049Z,-20415.28
2023-10-28T00:23:43.675Z,-20414.00
2023-10-28T00:24:45.894Z,-20414.53
2023-10-28T00:25:48.112Z,-20415.66
2023-10-28T00:26:50.317Z,-20416.38
2023-10-28T00:27:55.444Z,-20416.75
2023-10-28T00:28:57.682Z,-20418.97
2023-10-28T00:30:01.364Z,-20418.97
2023-10-28T00:31:05.246Z,-20419.91
2023-10-28T00:32:07.713Z,-20413.63
2023-10-28T00:33:10.038Z,-20416.38
2023-10-28T00:34:12.280Z,-20416.38
2023-10-28T00:35:14.862Z,-20419.72
2023-10-28T00:36:17.208Z,-20419.72
2023-10-28T00:37:19.383Z,-20417.13
2023-10-28T00:38:24.751Z,-20424.16
2023-10-28T00:39:26.957Z,-20419.53
2023-10-28T00:40:32.971Z,-20420.28
2023-10-28T00:41:35.432Z,-20419.72
2023-10-28T00:42:38.272Z,-20418.97
2023-10-28T00:43:40.462Z,-20419.53
2023-10-28T00:44:42.737Z,-20418.44
2023-10-28T00:45:44.951Z,-20415.84
2023-10-28T00:46:48.049Z,-20417.31
2023-10-28T00:47:50.781Z,-20417.50
2023-10-28T00:48:54.487Z,-20415.28
2023-10-28T00:49:59.254Z,-20416.59
2023-10-28T00:51:02.187Z,-20422.66
2023-10-28T00:52:04.680Z,-20420.63
2023-10-28T00:53:06.912Z,-20418.44
2023-10-28T00:54:09.181Z,-20416.75
2023-10-28T00:55:12.962Z,-20417.88
2023-10-28T00:56:15.487Z,-20416.03
2023-10-28T00:57:18.677Z,-20418.44
2023-10-28T00:58:25.609Z,-20421.00
2023-10-28T00:59:29.156Z,-20418.59
2023-10-28T01:00:31.403Z,-20414.19
2023-10-28T01:01:34.228Z,-20417.88
2023-10-28T01:02:38.203Z,-20418.44
2023-10-28T01:03:41.592Z,-20419.34
2023-10-28T01:04:44.727Z,-20417.88
2023-10-28T01:05:47.262Z,-20418.25
2023-10-28T01:06:49.616Z,-20416.03
2023-10-28T01:07:51.933Z,-20415.47
2023-10-28T01:08:54.194Z,-20416.03
2023-10-28T01:09:56.760Z,-20415.47
2023-10-28T01:11:02.155Z,-20417.31
2023-10-28T01:12:07.734Z,-20417.88
2023-10-28T01:13:09.964Z,-20417.88
2023-10-28T01:14:12.822Z,-20418.59
2023-10-28T01:15:15.050Z,-20419.34
2023-10-28T01:16:17.342Z,-20421.00
2023-10-28T01:17:19.752Z,-20416.59
2023-10-28T01:18:22.021Z,-20419.34
2023-10-28T01:19:24.301Z,-20418.59
2023-10-28T01:20:26.719Z,-20418.59
2023-10-28T01:21:29.204Z,-20418.25
2023-10-28T01:22:31.489Z,-20417.50
2023-10-28T01:23:33.719Z,-20419.16
2023-10-28T01:24:36.551Z,-20420.81
2023-10-28T01:25:38.861Z,-20420.28
2023-10-28T01:26:41.093Z,-20422.66
2023-10-28T01:27:45.779Z,-20417.88
2023-10-28T01:28:47.980Z,-20418.59
2023-10-28T01:29:50.195Z,-20420.44
2023-10-28T01:30:52.407Z,-20421.19
2023-10-28T01:31:54.916Z,-20421.00
2023-10-28T01:32:57.158Z,-20420.09
2023-10-28T01:33:59.357Z,-20418.97
2023-10-28T01:35:01.608Z,-20417.88
2023-10-28T01:36:04.028Z,-20420.09
2023-10-28T01:37:06.209Z,-20422.66
2023-10-28T01:38:09.183Z,-20421.56
2023-10-28T01:39:13.487Z,-20423.03
2023-10-28T01:40:16.300Z,-20422.13
2023-10-28T01:41:19.300Z,-20422.13
2023-10-28T01:42:23.519Z,-20426.75
2023-10-28T01:43:25.701Z,-20424.16
2023-10-28T01:44:27.925Z,-20421.56
2023-10-28T01:45:30.528Z,-20423.59
2023-10-28T01:46:34.639Z,-20422.31
2023-10-28T01:47:40.450Z,-20423.41
2023-10-28T01:48:42.816Z,-20422.66
2023-10-28T01:49:46.890Z,-20422.31
2023-10-28T01:50:49.432Z,-20420.44
2023-10-28T01:51:51.621Z,-20423.03
2023-10-28T01:52:54.026Z,-20423.03
2023-10-28T01:53:56.436Z,-20420.09
2023-10-28T01:54:58.666Z,-20420.44
2023-10-28T01:56:01.099Z,-20420.28
2023-10-28T01:57:08.139Z,-20423.78
2023-10-28T01:58:10.839Z,-20418.97
2023-10-28T01:59:14.226Z,-20415.28
2023-10-28T02:00:18.082Z,-20416.38
2023-10-28T02:01:20.322Z,-20415.66
2023-10-28T02:02:22.553Z,-20417.31
2023-10-28T02:03:24.817Z,-20419.72
2023-10-28T02:04:27.156Z,-20418.59
2023-10-28T02:05:29.368Z,-20421.19
2023-10-28T02:06:31.558Z,-20420.44
2023-10-28T02:07:37.390Z,-20425.63
2023-10-28T02:08:39.682Z,-20421.56
2023-10-28T02:09:42.017Z,-20417.31
2023-10-28T02:10:44.261Z,-20420.44
2023-10-28T02:11:46.940Z,-20420.63
2023-10-28T02:12:51.199Z,-20418.97
2023-10-28T02:13:53.692Z,-20419.53
2023-10-28T02:14:55.914Z,-20421.56
2023-10-28T02:15:58.538Z,-20421.56
2023-10-28T02:17:01.671Z,-20421.56
2023-10-28T02:18:05.750Z,-20418.59
2023-10-28T02:19:08.021Z,-20418.25
2023-10-28T02:20:11.560Z,-20418.97
2023-10-28T02:21:15.565Z,-20419.53
2023-10-28T02:22:17.944Z,-20419.34
2023-10-28T02:23:20.137Z,-20417.13
2023-10-28T02:24:22.433Z,-20419.34
2023-10-28T02:25:25.400Z,-20421.19
2023-10-28T02:26:27.608Z,-20419.34
2023-10-28T02:27:29.915Z,-20421.19
2023-10-28T02:28:32.650Z,-20422.31
2023-10-28T02:29:35.008Z,-20419.34
2023-10-28T02:30:41.469Z,-20422.31
2023-10-28T02:31:43.679Z,-20419.72
2023-10-28T02:32:46.099Z,-20419.53
2023-10-28T02:33:48.442Z,-20418.97
2023-10-28T02:34:50.948Z,-20415.47
2023-10-28T02:35:53.129Z,-20416.75
2023-10-28T02:36:55.352Z,-20418.25
2023-10-28T02:37:57.604Z,-20418.59
2023-10-28T02:39:00.199Z,-20418.59
2023-10-28T02:40:02.885Z,-20417.88
2023-10-28T02:41:08.448Z,-20421.19
2023-10-28T02:42:10.705Z,-20416.75
2023-10-28T02:43:13.082Z,-20415.66
2023-10-28T02:44:15.301Z,-20417.50
2023-10-28T02:45:17.733Z,-20417.13
2023-10-28T02:46:24.022Z,-20421.75
2023-10-28T02:47:26.809Z,-20417.88
2023-10-28T02:48:30.743Z,-20418.25
2023-10-28T02:49:32.989Z,-20419.53
2023-10-28T02:50:37.450Z,-20419.16
2023-10-28T02:51:40.289Z,-20418.25
2023-10-28T02:52:42.470Z,-20416.75
2023-10-28T02:53:44.749Z,-20417.13
2023-10-28T02:54:46.929Z,-20417.13
2023-10-28T02:55:49.246Z,-20418.59
2023-10-28T02:56:51.452Z,-20418.78
2023-10-28T02:57:54.746Z,-20417.69
2023-10-28T02:58:57.276Z,-20419.91
2023-10-28T02:59:59.614Z,-20420.28
2023-10-28T03:01:09.528Z,-20426.19
2023-10-28T03:02:12.286Z,-20419.34
2023-10-28T03:03:14.683Z,-20421.75
2023-10-28T03:04:17.251Z,-20420.09
2023-10-28T03:05:21.701Z,-20423.59
2023-10-28T03:06:23.878Z,-20421.19
2023-10-28T03:07:26.105Z,-20420.44
2023-10-28T03:08:28.385Z,-20424.53
2023-10-28T03:09:31.807Z,-20424.72
2023-10-28T03:10:34.068Z,-20425.44
2023-10-28T03:11:36.378Z,-20422.50
2023-10-28T03:12:38.997Z,-20422.66
2023-10-28T03:13:41.284Z,-20421.94
2023-10-28T03:14:43.529Z,-20419.72
2023-10-28T03:15:47.841Z,-20423.97
2023-10-28T03:16:50.160Z,-20421.56
2023-10-28T03:17:52.455Z,-20422.13
2023-10-28T03:18:54.752Z,-20422.31
2023-10-28T03:19:57.049Z,-20420.09
2023-10-28T03:20:59.907Z,-20417.13
2023-10-28T03:22:02.108Z,-20421.00
2023-10-28T03:23:04.403Z,-20419.34
2023-10-28T03:24:07.887Z,-20421.56
2023-10-28T03:25:10.312Z,-20420.28
2023-10-28T03:26:12.819Z,-20422.13
2023-10-28T03:27:15.298Z,-20422.13
2023-10-28T03:28:17.553Z,-20419.72
2023-10-28T03:29:19.948Z,-20420.44
2023-10-28T03:30:22.219Z,-20419.34
2023-10-28T03:31:25.460Z,-20419.72
2023-10-28T03:32:27.916Z,-20417.88
2023-10-28T03:33:30.164Z,-20422.84
2023-10-28T03:34:32.377Z,-20427.47
2023-10-28T03:35:34.610Z,-20426.19
2023-10-28T03:36:38.698Z,-20429.13
2023-10-28T03:37:43.422Z,-20427.47
2023-10-28T03:38:45.657Z,-20424.53
2023-10-28T03:39:48.362Z,-20428.59
2023-10-28T03:40:50.752Z,-20429.31
2023-10-28T03:41:52.980Z,-20429.13
2023-10-28T03:42:55.433Z,-20429.88
2023-10-28T03:43:57.792Z,-20426.75
2023-10-28T03:45:00.388Z,-20425.81
2023-10-28T03:46:04.467Z,-20427.09
2023-10-28T03:47:08.190Z,-20426.00
2023-10-28T03:48:11.125Z,-20426.00
2023-10-28T03:49:13.698Z,-20427.09
2023-10-28T03:50:15.904Z,-20424.72
2023-10-28T03:51:18.163Z,-20426.56
2023-10-28T03:52:20.365Z,-20424.53
2023-10-28T03:53:22.622Z,-20425.63
2023-10-28T03:54:24.846Z,-20426.19
2023-10-28T03:55:27.040Z,-20429.69
2023-10-28T03:56:30.185Z,-20429.50
2023-10-28T03:57:32.552Z,-20429.88
2023-10-28T03:58:35.520Z,-20430.44
2023-10-28T03:59:37.763Z,-20428.59
2023-10-28T04:00:40.027Z,-20428.94
2023-10-28T04:01:42.442Z,-20431.16
2023-10-28T04:02:44.747Z,-20431.34
2023-10-28T04:03:47.009Z,-20431.91
2023-10-28T04:04:49.271Z,-20432.28
2023-10-28T04:05:52.155Z,-20432.28
2023-10-28T04:06:56.482Z,-20428.59
2023-10-28T04:07:58.703Z,-20427.84
2023-10-28T04:09:00.945Z,-20428.59
2023-10-28T04:10:08.792Z,-20426.00
2023-10-28T04:11:11.695Z,-20425.44
2023-10-28T04:12:14.011Z,-20426.75
2023-10-28T04:13:16.241Z,-20426.00
2023-10-28T04:14:18.500Z,-20425.25
2023-10-28T04:15:20.947Z,-20426.94
2023-10-28T04:16:23.182Z,-20427.09
2023-10-28T04:17:25.933Z,-20425.25
2023-10-28T04:18:28.205Z,-20425.81
2023-10-28T04:19:31.038Z,-20425.63
2023-10-28T04:20:34.521Z,-20426.94
2023-10-28T04:21:36.710Z,-20425.06
2023-10-28T04:22:38.867Z,-20424.72
2023-10-28T04:23:41.120Z,-20428.94
2023-10-28T04:24:43.327Z,-20430.44
2023-10-28T04:25:45.737Z,-20430.78
2023-10-28T04:26:47.981Z,-20430.97
2023-10-28T04:27:51.890Z,-20430.06
2023-10-28T04:28:54.952Z,-20429.31
2023-10-28T04:29:57.199Z,-20428.94
2023-10-28T04:31:00.485Z,-20427.47
2023-10-28T04:32:02.749Z,-20427.09
2023-10-28T04:33:06.628Z,-20427.47
2023-10-28T04:34:08.938Z,-20428.59
2023-10-28T04:35:24.144Z,-20427.66
2023-10-28T04:36:30.167Z,-20429.13
2023-10-28T04:37:32.658Z,-20423.97
2023-10-28T04:38:35.967Z,-20425.44
2023-10-28T04:39:38.144Z,-20425.44
2023-10-28T04:40:41.884Z,-20427.47
2023-10-28T04:41:44.118Z,-20426.00
2023-10-28T04:42:48.424Z,-20425.25
2023-10-28T04:43:50.717Z,-20427.09
2023-10-28T04:44:53.452Z,-20426.75
2023-10-28T04:45:56.122Z,-20427.09
2023-10-28T04:46:58.396Z,-20427.66
2023-10-28T04:48:00.652Z,-20427.28
2023-10-28T04:49:03.031Z,-20427.66
2023-10-28T04:50:08.933Z,-20430.97
2023-10-28T04:51:11.971Z,-20429.31
2023-10-28T04:52:14.304Z,-20430.25
2023-10-28T04:53:16.530Z,-20430.78
2023-10-28T04:54:18.895Z,-20432.09
2023-10-28T04:55:23.061Z,-20432.28
2023-10-28T04:56:25.335Z,-20431.53
2023-10-28T04:57:27.584Z,-20429.50
2023-10-28T04:58:29.720Z,-20430.78
2023-10-28T04:59:32.211Z,-20431.91
2023-10-28T05:00:34.481Z,-20430.06
2023-10-28T05:01:36.721Z,-20429.31
2023-10-28T05:02:40.996Z,-20429.13
2023-10-28T05:03:43.219Z,-20431.16
2023-10-28T05:04:45.535Z,-20431.91
2023-10-28T05:05:47.769Z,-20431.16
2023-10-28T05:06:51.012Z,-20431.53
2023-10-28T05:07:53.233Z,-20430.78
2023-10-28T05:08:55.485Z,-20431.16
2023-10-28T05:09:57.754Z,-20430.78
2023-10-28T05:10:59.989Z,-20429.69
2023-10-28T05:12:03.053Z,-20426.94
2023-10-28T05:13:05.364Z,-20427.66
2023-10-28T05:14:11.013Z,-20428.59
2023-10-28T05:15:13.280Z,-20430.78
2023-10-28T05:16:15.633Z,-20432.09
2023-10-28T05:17:18.164Z,-20432.47
2023-10-28T05:18:20.744Z,-20433.00
2023-10-28T05:19:23.761Z,-20433.75
2023-10-28T05:20:26.862Z,-20437.06
2023-10-28T05:21:29.085Z,-20437.44
2023-10-28T05:22:31.398Z,-20435.22
2023-10-28T05:23:33.804Z,-20435.97
2023-10-28T05:24:35.999Z,-20434.84
2023-10-28T05:25:38.220Z,-20433.56
2023-10-28T05:26:40.489Z,-20433.94
2023-10-28T05:27:42.700Z,-20434.31
2023-10-28T05:28:47.757Z,-20431.53
2023-10-28T05:29:49.937Z,-20431.16
2023-10-28T05:30:52.164Z,-20431.91
2023-10-28T05:31:57.916Z,-20431.91
2023-10-28T05:33:01.994Z,-20432.09
2023-10-28T05:34:04.537Z,-20432.66
2023-10-28T05:35:09.439Z,-20434.50
2023-10-28T05:36:11.680Z,-20434.84
2023-10-28T05:37:13.843Z,-20434.84
2023-10-28T05:38:16.190Z,-20435.97
2023-10-28T05:39:18.527Z,-20434.13
2023-10-28T05:40:22.015Z,-20435.59
2023-10-28T05:41:24.332Z,-20433.75
2023-10-28T05:42:26.546Z,-20432.66
2023-10-28T05:43:28.708Z,-20433.75
2023-10-28T05:44:30.873Z,-20434.50
2023-10-28T05:45:33.088Z,-20436.72
2023-10-28T05:46:35.320Z,-20436.72
2023-10-28T05:47:37.613Z,-20434.13
2023-10-28T05:48:39.812Z,-20436.34
2023-10-28T05:49:43.375Z,-20439.09
2023-10-28T05:50:45.573Z,-20436.72
2023-10-28T05:51:47.777Z,-20436.72
2023-10-28T05:52:50.287Z,-20437.06
2023-10-28T05:53:52.548Z,-20438.56
2023-10-28T05:54:54.721Z,-20435.59
2023-10-28T05:55:57.356Z,-20435.22
2023-10-28T05:56:59.886Z,-20436.34
2023-10-28T05:58:02.165Z,-20434.84
2023-10-28T05:59:04.430Z,-20432.28
2023-10-28T06:00:16.914Z,-20436.34
2023-10-28T06:01:19.146Z,-20436.16
2023-10-28T06:02:21.570Z,-20435.59
2023-10-28T06:03:23.946Z,-20435.41
2023-10-28T06:04:26.435Z,-20435.97
2023-10-28T06:05:28.693Z,-20434.13
2023-10-28T06:06:30.993Z,-20435.59
2023-10-28T06:07:34.043Z,-20434.31
2023-10-28T06:08:36.423Z,-20432.66
2023-10-28T06:09:38.739Z,-20435.22
2023-10-28T06:10:40.916Z,-20435.22
2023-10-28T06:11:43.411Z,-20437.44
2023-10-28T06:12:45.628Z,-20437.06
2023-10-28T06:13:47.828Z,-20436.34
2023-10-28T06:14:50.089Z,-20436.91
2023-10-28T06:15:52.249Z,-20435.97
2023-10-28T06:16:54.482Z,-20438.38
2023-10-28T06:17:58.329Z,-20438.19
2023-10-28T06:19:01.720Z,-20439.66
2023-10-28T06:20:06.536Z,-20440.41
2023-10-28T06:21:08.976Z,-20438.00
2023-10-28T06:22:14.265Z,-20437.81
2023-10-28T06:23:16.641Z,-20438.19
2023-10-28T06:24:21.457Z,-20438.19
2023-10-28T06:25:23.780Z,-20438.00
2023-10-28T06:26:26.034Z,-20439.28
2023-10-28T06:27:28.190Z,-20440.75
2023-10-28T06:28:30.475Z,-20440.41
2023-10-28T06:29:34.133Z,-20442.06
2023-10-28T06:30:36.536Z,-20441.88
2023-10-28T06:31:40.177Z,-20440.22
2023-10-28T06:32:43.378Z,-20437.44
2023-10-28T06:33:45.660Z,-20439.66
2023-10-28T06:34:47.915Z,-20439.66
2023-10-28T06:35:50.114Z,-20439.66
2023-10-28T06:36:52.291Z,-20438.91
2023-10-28T06:37:54.596Z,-20438.91
2023-10-28T06:38:57.129Z,-20440.22
2023-10-28T06:40:00.099Z,-20442.25
2023-10-28T06:41:02.446Z,-20440.03
2023-10-28T06:42:05.353Z,-20442.97
2023-10-28T06:43:12.259Z,-20443.53
2023-10-28T06:44:15.788Z,-20444.47
2023-10-28T06:45:18.764Z,-20443.72
2023-10-28T06:46:21.105Z,-20443.72
2023-10-28T06:47:23.407Z,-20442.78
2023-10-28T06:48:25.821Z,-20443.34
2023-10-28T06:49:28.100Z,-20445.94
2023-10-28T06:50:30.361Z,-20444.47
2023-10-28T06:51:34.153Z,-20442.63
2023-10-28T06:52:37.628Z,-20442.97
2023-10-28T06:53:43.587Z,-20442.63
2023-10-28T06:54:45.943Z,-20442.97
2023-10-28T06:55:49.344Z,-20443.34
2023-10-28T06:56:52.861Z,-20444.81
2023-10-28T06:57:57.878Z,-20446.84
2023-10-28T06:59:00.572Z,-20443.91
2023-10-28T07:00:04.143Z,-20444.81
2023-10-28T07:01:06.353Z,-20446.84
2023-10-28T07:02:09.695Z,-20445.56
2023-10-28T07:03:15.533Z,-20446.31
2023-10-28T07:04:17.830Z,-20446.31
2023-10-28T07:05:20.305Z,-20445.19
2023-10-28T07:06:22.517Z,-20447.03
2023-10-28T07:07:24.721Z,-20447.41
2023-10-28T07:08:26.946Z,-20446.69
2023-10-28T07:09:29.243Z,-20450.38
2023-10-28T07:10:31.495Z,-20450.38
2023-10-28T07:11:33.689Z,-20448.88
2023-10-28T07:12:36.112Z,-20446.69
2023-10-28T07:13:38.831Z,-20448.88
2023-10-28T07:14:41.075Z,-20449.63
2023-10-28T07:15:43.420Z,-20449.25
2023-10-28T07:16:45.717Z,-20450.38
2023-10-28T07:17:48.100Z,-20450.38
2023-10-28T07:18:50.612Z,-20450.91
2023-10-28T07:19:54.039Z,-20451.84
2023-10-28T07:20:57.004Z,-20452.75
2023-10-28T07:21:59.264Z,-20453.13
2023-10-28T07:23:04.240Z,-20455.16
2023-10-28T07:24:12.482Z,-20454.97
2023-10-28T07:25:15.421Z,-20455.53
2023-10-28T07:26:17.732Z,-20454.25
2023-10-28T07:27:19.944Z,-20456.66
2023-10-28T07:28:22.721Z,-20457.00
2023-10-28T07:29:24.948Z,-20459.22
2023-10-28T07:30:27.156Z,-20459.03
2023-10-28T07:31:29.347Z,-20459.03
2023-10-28T07:32:32.278Z,-20457.38
2023-10-28T07:33:35.525Z,-20459.22
2023-10-28T07:34:37.745Z,-20455.91
2023-10-28T07:35:47.470Z,-20461.25
2023-10-28T07:36:49.638Z,-20458.31
2023-10-28T07:37:51.859Z,-20457.56
2023-10-28T07:38:54.159Z,-20458.13
2023-10-28T07:39:56.413Z,-20458.47
2023-10-28T07:40:58.927Z,-20458.84
2023-10-28T07:42:01.923Z,-20459.97
2023-10-28T07:43:04.155Z,-20459.22
2023-10-28T07:44:06.560Z,-20458.66
2023-10-28T07:45:09.133Z,-20456.66
2023-10-28T07:46:11.364Z,-20456.81
2023-10-28T07:47:13.638Z,-20457.38
2023-10-28T07:48:15.970Z,-20458.66
2023-10-28T07:49:18.159Z,-20457.94
2023-10-28T07:50:20.523Z,-20458.47
2023-10-28T07:51:22.852Z,-20459.03
2023-10-28T07:52:25.057Z,-20460.31
2023-10-28T07:53:27.364Z,-20459.78
2023-10-28T07:54:29.694Z,-20463.84
2023-10-28T07:55:32.680Z,-20464.94
2023-10-28T07:56:35.243Z,-20465.88
2023-10-28T07:57:37.580Z,-20464.03
2023-10-28T07:58:39.760Z,-20464.56
2023-10-28T07:59:42.046Z,-20463.66
2023-10-28T08:00:44.276Z,-20466.25
2023-10-28T08:01:46.538Z,-20464.56
2023-10-28T08:02:49.002Z,-20464.38
2023-10-28T08:03:52.900Z,-20468.44
2023-10-28T08:04:55.706Z,-20463.47
2023-10-28T08:05:57.949Z,-20464.38
2023-10-28T08:07:00.176Z,-20464.38
2023-10-28T08:08:04.299Z,-20463.09
2023-10-28T08:09:07.246Z,-20463.84
2023-10-28T08:10:11.113Z,-20464.56
2023-10-28T08:11:25.442Z,-20464.75
2023-10-28T08:12:27.741Z,-20465.31
2023-10-28T08:13:30.136Z,-20465.50
2023-10-28T08:14:33.759Z,-20465.88
2023-10-28T08:15:36.002Z,-20466.97
2023-10-28T08:16:38.321Z,-20469.19
2023-10-28T08:17:40.684Z,-20467.72
2023-10-28T08:18:43.026Z,-20465.13
2023-10-28T08:19:45.395Z,-20468.81
2023-10-28T08:20:47.855Z,-20468.44
2023-10-28T08:21:50.066Z,-20469.56
2023-10-28T08:22:52.305Z,-20469.94
2023-10-28T08:23:54.602Z,-20471.78
2023-10-28T08:24:56.844Z,-20474.34
2023-10-28T08:25:59.308Z,-20471.22
2023-10-28T08:27:01.630Z,-20474.19
2023-10-28T08:28:04.660Z,-20477.31
2023-10-28T08:29:07.040Z,-20478.78
2023-10-28T08:30:09.902Z,-20477.50
2023-10-28T08:31:12.792Z,-20479.53
2023-10-28T08:32:19.123Z,-20478.06
2023-10-28T08:33:21.969Z,-20479.16
2023-10-28T08:34:26.174Z,-20478.41
2023-10-28T08:35:29.679Z,-20483.22
2023-10-28T08:36:35.298Z,-20488.94
2023-10-28T08:37:37.750Z,-20484.69
2023-10-28T08:38:39.961Z,-20485.06
2023-10-28T08:39:42.480Z,-20481.75
2023-10-28T08:40:46.665Z,-20482.50
2023-10-28T08:41:51.344Z,-20484.88
2023-10-28T08:42:53.818Z,-20481.75
2023-10-28T08:43:58.033Z,-20485.25
2023-10-28T08:45:02.639Z,-20485.06
2023-10-28T08:46:06.109Z,-20484.88
2023-10-28T08:47:08.549Z,-20484.69
2023-10-28T08:48:11.579Z,-20485.81
2023-10-28T08:49:16.815Z,-20491.72
2023-10-28T08:50:20.742Z,-20485.81
2023-10-28T08:51:23.035Z,-20483.97
2023-10-28T08:52:29.140Z,-20483.59
2023-10-28T08:53:34.968Z,-20485.44
2023-10-28T08:54:39.305Z,-20482.13
2023-10-28T08:55:41.703Z,-20485.44
2023-10-28T08:56:45.386Z,-20485.81
2023-10-28T08:57:48.235Z,-20485.63
2023-10-28T08:58:52.166Z,-20481.38
2023-10-28T08:59:54.426Z,-20483.78
2023-10-28T09:01:00.583Z,-20491.72
2023-10-28T09:02:09.194Z,-20487.09
2023-10-28T09:03:14.190Z,-20486.91
2023-10-28T09:04:16.547Z,-20484.34
2023-10-28T09:05:18.758Z,-20485.44
2023-10-28T09:06:21.581Z,-20481.75
2023-10-28T09:07:24.334Z,-20486.91
2023-10-28T09:08:26.606Z,-20489.50
2023-10-28T09:09:29.028Z,-20488.94
2023-10-28T09:10:31.460Z,-20484.34
2023-10-28T09:11:33.678Z,-20486.91
2023-10-28T09:12:36.346Z,-20486.91
2023-10-28T09:13:39.585Z,-20488.75
2023-10-28T09:14:41.794Z,-20486.00
2023-10-28T09:15:44.303Z,-20484.34
2023-10-28T09:16:46.637Z,-20484.69
2023-10-28T09:17:48.905Z,-20484.88
2023-10-28T09:18:52.180Z,-20487.28
2023-10-28T09:19:54.644Z,-20483.97
2023-10-28T09:20:56.866Z,-20487.09
2023-10-28T09:22:00.358Z,-20484.34
2023-10-28T09:23:02.631Z,-20487.47
2023-10-28T09:24:05.319Z,-20487.66
2023-10-28T09:25:15.616Z,-20489.13
2023-10-28T09:26:19.269Z,-20485.06
2023-10-28T09:27:22.296Z,-20484.88
2023-10-28T09:28:26.256Z,-20485.44
2023-10-28T09:29:34.625Z,-20487.28
2023-10-28T09:30:47.790Z,-20490.78
2023-10-28T09:31:51.394Z,-20485.06
2023-10-28T09:32:54.729Z,-20487.47
2023-10-28T09:33:59.197Z,-20483.22
2023-10-28T09:35:06.858Z,-20493.19
2023-10-28T09:36:09.754Z,-20492.81
2023-10-28T09:37:19.300Z,-20489.50
2023-10-28T09:38:21.934Z,-20483.97
2023-10-28T09:39:25.316Z,-20483.22
2023-10-28T09:40:28.336Z,-20485.81
2023-10-28T09:41:31.523Z,-20491.91
2023-10-28T09:42:35.951Z,-20491.91
2023-10-28T09:43:39.121Z,-20493.94
2023-10-28T09:44:45.190Z,-20494.13
2023-10-28T09:45:51.593Z,-20501.31
2023-10-28T09:47:05.146Z,-20500.94
2023-10-28T09:48:17.072Z,-20497.81
2023-10-28T09:49:22.020Z,-20499.28
2023-10-28T09:50:28.537Z,-20502.06
2023-10-28T09:51:31.807Z,-20500.38
2023-10-28T09:52:35.957Z,-20493.00
2023-10-28T09:53:44.684Z,-20499.47
2023-10-28T09:54:50.389Z,-20501.69
2023-10-28T09:55:58.147Z,-20509.06
2023-10-28T09:57:01.927Z,-20510.91
2023-10-28T09:58:09.589Z,-20516.63
2023-10-28T09:59:19.233Z,-20513.88
2023-10-28T10:00:24.903Z,-20515.34
2023-10-28T10:01:36.382Z,-20516.63
2023-10-28T10:03:00.985Z,-20512.56
2023-10-28T10:04:09.148Z,-20503.91
2023-10-28T10:05:24.432Z,-20511.09
2023-10-28T10:06:27.151Z,-20499.28
2023-10-28T10:07:29.452Z,-20505.94
2023-10-28T10:08:34.725Z,-20510.16
2023-10-28T10:09:49.797Z,-20513.13
2023-10-28T10:10:58.867Z,-20514.59
2023-10-28T10:12:01.561Z,-20511.66
2023-10-28T10:13:04.516Z,-20518.28
2023-10-28T10:14:12.089Z,-20526.41
2023-10-28T10:15:14.851Z,-20517.19
2023-10-28T10:16:31.693Z,-20517.75
2023-10-28T10:17:45.828Z,-20520.50
2023-10-28T10:18:51.050Z,-20520.31
2023-10-28T10:19:53.793Z,-20519.22
2023-10-28T10:21:07.152Z,-20529.00
2023-10-28T10:22:09.545Z,-20528.25
2023-10-28T10:23:11.845Z,-20534.34
2023-10-28T10:24:14.112Z,-20537.50
2023-10-28T10:25:16.312Z,-20543.78
2023-10-28T10:26:33.168Z,-20546.53
2023-10-28T10:27:36.999Z,-20545.81
2023-10-28T10:28:47.728Z,-20545.25
2023-10-28T10:29:50.085Z,-20543.53
2023-10-28T10:30:52.573Z,-19904.03
2023-10-28T10:31:57.071Z,-18617.81
2023-10-28T10:32:59.783Z,-17323.91
2023-10-28T10:34:10.666Z,-15065.34
2023-10-28T10:35:14.020Z,-11183.19
2023-10-28T10:36:20.107Z,-9560.88
2023-10-28T10:37:26.272Z,-11507.66
2023-10-28T10:38:30.423Z,-9883.78
2023-10-28T10:39:45.689Z,-10208.00
2023-10-28T10:40:48.709Z,-10203.38
2023-10-28T10:41:54.758Z,-10205.41
2023-10-28T10:42:57.356Z,-9878.00
2023-10-28T10:44:34.727Z,-13126.16
2023-10-28T10:45:37.832Z,-9878.78
2023-10-28T10:46:40.352Z,-11820.94
2023-10-28T10:47:42.643Z,-12470.94
2023-10-28T10:48:48.429Z,-13442.25
2023-10-28T10:49:51.156Z,-12470.81
2023-10-28T10:50:53.549Z,-12472.59
2023-10-28T10:51:56.884Z,-13121.06
2023-10-28T10:52:59.672Z,-12796.84
2023-10-28T10:54:05.114Z,-12801.94
2023-10-28T10:55:08.424Z,-11180.81
2023-10-28T10:56:21.223Z,-11831.84
2023-10-28T10:57:23.501Z,-9558.22
2023-10-28T10:58:25.807Z,-10530.88
2023-10-28T10:59:33.300Z,-12150.94
2023-10-28T11:00:36.094Z,-13121.94
2023-10-28T11:01:39.726Z,-12475.09
2023-10-28T11:02:42.254Z,-10853.56
2023-10-28T11:03:45.832Z,-10852.28
2023-10-28T11:04:48.994Z,-11174.84
2023-10-28T11:05:52.443Z,-11172.47
2023-10-28T11:06:54.810Z,-13112.38
2023-10-28T11:07:57.750Z,-14086.84
2023-10-28T11:09:04.192Z,-14734.56
2023-10-28T11:10:09.296Z,-16348.56
2023-10-28T11:11:14.547Z,-18612.22
2023-10-28T11:12:22.807Z,-17645.28
2023-10-28T11:13:25.640Z,-14407.41
2023-10-28T11:14:27.927Z,-15378.22
2023-10-28T11:15:32.993Z,-15706.25
2023-10-28T11:16:35.618Z,-14409.03
2023-10-28T11:17:39.896Z,-15705.81
2023-10-28T11:18:42.210Z,-14411.31
2023-10-28T11:19:49.535Z,-14738.13
2023-10-28T11:20:53.661Z,-14088.03
2023-10-28T11:21:56.838Z,-12793.94
2023-10-28T11:22:59.536Z,-12790.28
2023-10-28T11:24:02.161Z,-13437.94
2023-10-28T11:25:05.919Z,-13763.44
2023-10-28T11:26:08.250Z,-14087.91
2023-10-28T11:27:19.973Z,-15058.47
2023-10-28T11:28:22.149Z,-14408.22
2023-10-28T11:29:24.460Z,-14732.22
2023-10-28T11:30:27.472Z,-15058.19
2023-10-28T11:31:31.026Z,-15059.03
2023-10-28T11:32:41.443Z,-16031.16
2023-10-28T11:33:44.701Z,-16026.88
2023-10-28T11:34:48.210Z,-16020.66
2023-10-28T11:35:52.217Z,-19574.28
2023-10-28T11:36:56.411Z,-18931.06
2023-10-28T11:37:58.621Z,-17636.75
2023-10-28T11:39:09.886Z,-17315.19
2023-10-28T11:40:13.186Z,-17312.66
2023-10-28T11:41:15.502Z,-16341.94
2023-10-28T11:42:19.793Z,-16016.38
2023-10-28T11:43:22.433Z,-16015.94
2023-10-28T11:44:30.300Z,-17635.47
2023-10-28T11:45:32.766Z,-16661.00
2023-10-28T11:46:34.967Z,-17953.16
2023-10-28T11:47:37.181Z,-17951.03
2023-10-28T11:48:39.397Z,-17953.16
2023-10-28T11:49:41.585Z,-18276.44
2023-10-28T11:50:46.194Z,-18921.63
2023-10-28T11:51:48.402Z,-20213.91
2023-10-28T11:52:50.665Z,-20214.66
2023-10-28T11:53:52.853Z,-19566.31
2023-10-28T11:54:55.138Z,-18920.97
2023-10-28T11:55:57.395Z,-18922.50
2023-10-28T11:56:59.620Z,-19566.84
2023-10-28T11:58:01.801Z,-19891.09
2023-10-28T11:59:04.095Z,-19564.91
2023-10-28T12:00:07.042Z,-19244.00
2023-10-28T12:01:09.359Z,-19888.97
2023-10-28T12:02:11.664Z,-19565.09
2023-10-28T12:03:14.300Z,-20532.66
2023-10-28T12:04:16.503Z,-20533.81